Time;durP1;ratioP1;P1;durP2;ratioP2;P2;SDS_P1;SDS_P2;PMS_P1;PMS_P2;Temp;Humidity;BMP_temperature;BMP_pressure;BME280_temperature;BME280_humidity;BME280_pressure;Samples;Min_cycle;Max_cycle;Signal;HPM_P1;HPM_P2
2022/09/23 00:01:09;;;;;;;15.20;10.93;;;;;;;;;;5095870;28;20028;-76
2022/09/23 00:03:36;;;;;;;15.82;11.15;;;;;;;;;;5095866;28;20051;-79
2022/09/23 00:06:06;;;;;;;20.55;12.90;;;;;;;;;;5077315;28;20028;-79
2022/09/23 00:08:31;;;;;;;17.27;12.63;;;;;;;;;;5094916;28;20123;-79
2022/09/23 00:11:02;;;;;;;17.77;11.52;;;;;;;;;;5095443;28;20133;-79
2022/09/23 00:13:27;;;;;;;16.38;10.85;;;;;;;;;;5095397;28;20460;-79
2022/09/23 00:15:52;;;;;;;13.40;10.23;;;;;;;;;;5095443;28;20103;-79
2022/09/23 00:18:19;;;;;;;15.45;11.07;;;;;;;;;;5094883;28;20123;-79
2022/09/23 00:20:44;;;;;;;15.73;11.00;;;;;;;;;;5095345;28;20024;-79
2022/09/23 00:23:10;;;;;;;13.65;10.63;;;;;;;;;;5095193;28;20031;-78
2022/09/23 00:25:35;;;;;;;17.23;10.93;;;;;;;;;;5095274;28;20392;-78
2022/09/23 00:28:02;;;;;;;12.82;9.20;;;;;;;;;;5095232;28;20114;-78
2022/09/23 00:30:28;;;;;;;14.90;9.98;;;;;;;;;;5077059;28;20012;-75
2022/09/23 00:32:55;;;;;;;13.15;10.05;;;;;;;;;;5094859;28;20032;-75
2022/09/23 00:35:21;;;;;;;13.80;9.73;;;;;;;;;;5077284;28;20095;-76
2022/09/23 00:37:46;;;;;;;12.40;9.48;;;;;;;;;;5094550;28;20119;-78
2022/09/23 00:40:11;;;;;;;13.05;9.02;;;;;;;;;;5060123;28;20372;-77
2022/09/23 00:42:45;;;;;;;11.70;8.50;;;;;;;;;;5094271;28;20476;-79
2022/09/23 00:45:10;;;;;;;12.45;8.93;;;;;;;;;;5094784;28;20099;-80
2022/09/23 00:47:46;;;;;;;12.20;9.32;;;;;;;;;;5094671;28;20424;-80
2022/09/23 00:50:26;;;;;;;15.30;10.75;;;;;;;;;;5094746;28;20556;-79
2022/09/23 00:52:53;;;;;;;15.18;12.00;;;;;;;;;;5094697;28;20115;-79
2022/09/23 00:55:24;;;;;;;17.52;12.30;;;;;;;;;;5094683;28;20478;-79
2022/09/23 00:57:51;;;;;;;15.63;11.60;;;;;;;;;;5099094;28;20537;-78
2022/09/23 01:00:16;;;;;;;16.92;12.30;;;;;;;;;;5101382;28;20069;-79
2022/09/23 01:02:42;;;;;;;17.98;12.07;;;;;;;;;;5097638;28;20020;-78
2022/09/23 01:05:08;;;;;;;17.58;10.70;;;;;;;;;;5078783;28;20047;-79
2022/09/23 01:07:33;;;;;;;13.45;10.50;;;;;;;;;;5096303;28;20032;-79
2022/09/23 01:09:59;;;;;;;15.85;10.35;;;;;;;;;;5095954;28;20054;-80
2022/09/23 01:12:45;;;;;;;13.80;9.95;;;;;;;;;;5095820;28;20157;-80
2022/09/23 01:15:17;;;;;;;13.25;9.45;;;;;;;;;;5077631;28;20028;-80
2022/09/23 01:17:46;;;;;;;13.38;10.30;;;;;;;;;;5076329;28;20479;-80
2022/09/23 01:20:11;;;;;;;16.70;10.30;;;;;;;;;;5095570;28;20028;-80
2022/09/23 01:23:06;;;;;;;12.68;10.02;;;;;;;;;;5095140;28;20039;-80
2022/09/23 01:25:49;;;;;;;14.10;10.25;;;;;;;;;;5073110;28;20036;-81
2022/09/23 01:28:15;;;;;;;13.88;10.25;;;;;;;;;;5094932;28;20107;-81
2022/09/23 01:30:42;;;;;;;14.27;10.70;;;;;;;;;;5095081;28;20055;-79
2022/09/23 01:33:12;;;;;;;15.10;10.70;;;;;;;;;;5076837;28;20031;-79
2022/09/23 01:35:37;;;;;;;13.27;10.50;;;;;;;;;;5094676;28;20028;-79
2022/09/23 01:38:16;;;;;;;12.25;10.25;;;;;;;;;;5093708;28;20036;-74
2022/09/23 01:40:58;;;;;;;22.05;12.77;;;;;;;;;;5094361;28;20032;-78
2022/09/23 01:43:33;;;;;;;18.98;11.93;;;;;;;;;;5094268;28;20028;-76
2022/09/23 01:45:59;;;;;;;14.65;11.07;;;;;;;;;;5094278;28;20093;-76
2022/09/23 01:48:36;;;;;;;14.98;10.98;;;;;;;;;;5094121;28;20024;-76
2022/09/23 01:51:11;;;;;;;15.55;9.82;;;;;;;;;;5094054;28;20024;-76
2022/09/23 01:53:37;;;;;;;13.77;10.00;;;;;;;;;;5094053;28;20036;-77
2022/09/23 01:56:05;;;;;;;13.32;10.27;;;;;;;;;;5075916;28;20352;-76
2022/09/23 01:58:38;;;;;;;15.95;10.10;;;;;;;;;;5093825;28;20070;-76
2022/09/23 02:01:05;;;;;;;17.27;10.07;;;;;;;;;;5094188;28;20064;-76
2022/09/23 02:03:34;;;;;;;12.30;9.65;;;;;;;;;;5076080;28;20028;-77
2022/09/23 02:05:59;;;;;;;13.65;9.55;;;;;;;;;;5093885;28;20032;-78
2022/09/23 02:08:33;;;;;;;13.45;8.70;;;;;;;;;;5093862;28;20031;-77
2022/09/23 02:11:06;;;;;;;11.30;8.50;;;;;;;;;;5094056;28;20055;-78
2022/09/23 02:13:50;;;;;;;9.63;7.97;;;;;;;;;;5076113;28;20039;-78
2022/09/23 02:16:23;;;;;;;12.90;9.00;;;;;;;;;;5094121;28;20113;-78
2022/09/23 02:18:55;;;;;;;10.95;8.95;;;;;;;;;;5076132;28;20470;-77
2022/09/23 02:21:24;;;;;;;10.60;8.35;;;;;;;;;;5093880;28;20028;-77
2022/09/23 02:23:52;;;;;;;16.15;10.35;;;;;;;;;;5076097;28;20022;-77
2022/09/23 02:26:19;;;;;;;10.88;9.40;;;;;;;;;;5093981;28;20107;-78
2022/09/23 02:28:56;;;;;;;10.75;9.65;;;;;;;;;;5077376;28;20398;-74
2022/09/23 02:31:53;;;;;;;13.40;10.05;;;;;;;;;;5097137;28;20040;-74
2022/09/23 02:34:34;;;;;;;11.98;9.15;;;;;;;;;;5009292;28;20049;-74
2022/09/23 02:37:14;;;;;;;11.63;8.82;;;;;;;;;;5097159;28;20039;-75
2022/09/23 02:39:46;;;;;;;11.32;8.40;;;;;;;;;;5097621;28;20020;-75
2022/09/23 02:42:13;;;;;;;10.18;8.70;;;;;;;;;;5097122;28;20039;-75
2022/09/23 02:44:39;;;;;;;10.43;8.10;;;;;;;;;;5097395;28;20360;-75
2022/09/23 02:47:05;;;;;;;10.65;8.57;;;;;;;;;;5096996;28;20038;-77
2022/09/23 02:49:31;;;;;;;13.45;8.73;;;;;;;;;;5097288;28;20016;-76
2022/09/23 02:51:58;;;;;;;12.80;8.30;;;;;;;;;;5078640;28;20086;-75
2022/09/23 02:54:26;;;;;;;8.90;7.85;;;;;;;;;;5097272;28;20368;-78
2022/09/23 02:56:52;;;;;;;7.82;7.03;;;;;;;;;;5097009;28;20032;-79
2022/09/23 02:59:18;;;;;;;7.78;6.97;;;;;;;;;;5078858;28;20065;-79
2022/09/23 03:02:03;;;;;;;9.20;7.50;;;;;;;;;;5096821;28;20024;-78
2022/09/23 03:04:49;;;;;;;9.48;7.30;;;;;;;;;;5078432;28;20035;-77
2022/09/23 03:07:17;;;;;;;10.93;8.48;;;;;;;;;;5078554;28;20085;-78
2022/09/23 03:09:57;;;;;;;11.55;9.18;;;;;;;;;;5096373;28;20111;-78
2022/09/23 03:12:33;;;;;;;12.50;8.73;;;;;;;;;;5096299;28;20032;-76
2022/09/23 03:15:14;;;;;;;14.57;9.80;;;;;;;;;;5096399;28;20111;-76
2022/09/23 03:17:48;;;;;;;14.88;10.50;;;;;;;;;;5078403;28;20040;-79
2022/09/23 03:20:27;;;;;;;13.45;10.27;;;;;;;;;;5096595;28;20099;-79
2022/09/23 03:22:59;;;;;;;14.23;10.00;;;;;;;;;;5096794;28;20024;-79
2022/09/23 03:25:26;;;;;;;16.10;10.68;;;;;;;;;;5078257;28;20020;-78
2022/09/23 03:27:56;;;;;;;15.77;10.30;;;;;;;;;;5096224;28;20038;-79
2022/09/23 03:30:22;;;;;;;13.40;9.75;;;;;;;;;;5096264;28;20032;-78
2022/09/23 03:32:50;;;;;;;13.23;9.48;;;;;;;;;;5096338;28;20024;-79
2022/09/23 03:35:15;;;;;;;14.35;10.02;;;;;;;;;;5096146;28;20065;-78
2022/09/23 03:37:46;;;;;;;13.38;10.27;;;;;;;;;;5096441;28;20031;-77
2022/09/23 03:40:16;;;;;;;15.55;11.18;;;;;;;;;;5077140;28;20047;-78
2022/09/23 03:42:42;;;;;;;14.98;10.20;;;;;;;;;;5078036;28;20035;-78
2022/09/23 03:45:17;;;;;;;14.27;10.90;;;;;;;;;;5078087;28;20024;-78
2022/09/23 03:47:43;;;;;;;14.88;11.05;;;;;;;;;;5095813;28;20089;-79
2022/09/23 03:50:08;;;;;;;13.52;9.82;;;;;;;;;;5078847;28;20023;-79
2022/09/23 03:52:34;;;;;;;16.02;10.52;;;;;;;;;;5100330;28;20028;-78
2022/09/23 03:55:00;;;;;;;12.52;10.32;;;;;;;;;;5100404;28;20071;-79
2022/09/23 03:57:25;;;;;;;13.25;10.30;;;;;;;;;;5099480;28;20119;-79
2022/09/23 03:59:51;;;;;;;12.38;10.02;;;;;;;;;;5099107;28;20076;-78
2022/09/23 04:02:17;;;;;;;13.98;10.13;;;;;;;;;;5096996;28;20029;-78
2022/09/23 04:04:42;;;;;;;14.77;10.27;;;;;;;;;;5097178;28;20062;-78
2022/09/23 04:07:08;;;;;;;11.65;9.65;;;;;;;;;;5077917;28;20024;-78
2022/09/23 04:09:34;;;;;;;12.52;9.98;;;;;;;;;;5078714;28;20047;-78
2022/09/23 04:12:00;;;;;;;13.07;10.75;;;;;;;;;;5096863;28;20024;-78
2022/09/23 04:14:25;;;;;;;15.32;10.82;;;;;;;;;;5062245;28;20372;-78
2022/09/23 04:16:52;;;;;;;15.38;10.75;;;;;;;;;;5097092;28;20103;-77
2022/09/23 04:19:18;;;;;;;13.20;10.57;;;;;;;;;;5097426;28;20418;-78
2022/09/23 04:21:45;;;;;;;13.20;10.27;;;;;;;;;;5097804;28;20059;-78
2022/09/23 04:24:11;;;;;;;13.52;10.23;;;;;;;;;;5078834;28;20019;-78
2022/09/23 04:26:37;;;;;;;15.70;11.02;;;;;;;;;;5095121;28;20020;-77
2022/09/23 04:29:03;;;;;;;14.02;9.85;;;;;;;;;;5093932;28;20089;-78
2022/09/23 04:31:29;;;;;;;13.50;10.68;;;;;;;;;;5094237;28;20059;-78
2022/09/23 04:33:55;;;;;;;13.57;10.70;;;;;;;;;;5094402;28;20051;-77
2022/09/23 04:36:20;;;;;;;13.35;10.55;;;;;;;;;;5094534;28;20035;-78
2022/09/23 04:38:46;;;;;;;13.68;11.05;;;;;;;;;;5094531;28;20421;-77
2022/09/23 04:41:12;;;;;;;14.88;11.27;;;;;;;;;;5094315;28;20518;-77
2022/09/23 04:43:37;;;;;;;14.05;11.38;;;;;;;;;;5094012;28;20077;-77
2022/09/23 04:46:05;;;;;;;14.93;11.77;;;;;;;;;;5075002;28;20518;-78
2022/09/23 04:48:30;;;;;;;14.80;11.60;;;;;;;;;;5093506;28;20012;-78
2022/09/23 04:51:03;;;;;;;12.68;10.65;;;;;;;;;;5093157;28;20114;-77
2022/09/23 04:53:29;;;;;;;14.13;11.15;;;;;;;;;;5093122;28;20589;-77
2022/09/23 04:55:59;;;;;;;12.25;10.77;;;;;;;;;;5093320;28;20050;-79
2022/09/23 04:58:24;;;;;;;13.13;10.85;;;;;;;;;;5093640;28;20038;-79
2022/09/23 05:00:50;;;;;;;13.48;10.82;;;;;;;;;;5093943;28;20019;-77
2022/09/23 05:03:15;;;;;;;14.13;11.70;;;;;;;;;;5093739;28;20021;-77
2022/09/23 05:05:41;;;;;;;14.05;11.73;;;;;;;;;;5075390;28;20016;-77
2022/09/23 05:08:06;;;;;;;13.73;11.13;;;;;;;;;;5093025;28;20036;-77
2022/09/23 05:10:31;;;;;;;13.77;11.30;;;;;;;;;;5092946;28;20048;-77
2022/09/23 05:12:57;;;;;;;12.55;10.73;;;;;;;;;;5093186;28;20032;-77
2022/09/23 05:15:23;;;;;;;12.80;10.38;;;;;;;;;;5093362;28;20122;-78
2022/09/23 05:17:48;;;;;;;13.32;10.32;;;;;;;;;;5075090;28;20437;-78
2022/09/23 05:20:14;;;;;;;12.57;10.75;;;;;;;;;;5093456;28;20026;-78
2022/09/23 05:22:39;;;;;;;14.60;10.80;;;;;;;;;;5093332;28;20090;-78
2022/09/23 05:25:04;;;;;;;12.07;10.07;;;;;;;;;;5093699;28;20050;-77
2022/09/23 05:27:30;;;;;;;12.10;9.60;;;;;;;;;;5093401;28;20036;-78
2022/09/23 05:29:55;;;;;;;11.65;9.70;;;;;;;;;;5074613;28;20480;-78
2022/09/23 05:32:21;;;;;;;10.90;9.70;;;;;;;;;;5092619;28;20028;-78
2022/09/23 05:34:46;;;;;;;12.90;10.23;;;;;;;;;;5092652;28;20458;-78
2022/09/23 05:37:12;;;;;;;14.15;10.85;;;;;;;;;;5074219;28;20028;-78
2022/09/23 05:39:37;;;;;;;12.18;10.07;;;;;;;;;;5092675;28;20020;-78
2022/09/23 05:42:03;;;;;;;13.38;9.90;;;;;;;;;;5092531;28;20024;-78
2022/09/23 05:44:28;;;;;;;11.48;10.25;;;;;;;;;;5074403;28;20061;-78
2022/09/23 05:46:54;;;;;;;11.45;10.20;;;;;;;;;;5074390;28;20039;-78
2022/09/23 05:49:20;;;;;;;10.70;9.60;;;;;;;;;;5096226;28;20016;-81
2022/09/23 05:51:45;;;;;;;12.15;10.23;;;;;;;;;;5093445;28;20028;-79
2022/09/23 05:54:11;;;;;;;10.23;9.13;;;;;;;;;;5092551;28;20111;-78
2022/09/23 05:56:36;;;;;;;14.18;10.77;;;;;;;;;;5092459;28;20016;-79
2022/09/23 05:59:03;;;;;;;16.63;11.38;;;;;;;;;;5092270;28;20051;-79
2022/09/23 06:01:31;;;;;;;11.30;10.10;;;;;;;;;;5092420;28;20549;-79
2022/09/23 06:03:57;;;;;;;10.82;9.15;;;;;;;;;;5076871;28;20017;-78
2022/09/23 06:06:26;;;;;;;10.52;9.43;;;;;;;;;;5096398;28;20027;-78
2022/09/23 06:08:51;;;;;;;11.07;9.20;;;;;;;;;;5096120;28;20103;-78
2022/09/23 06:11:16;;;;;;;11.27;9.60;;;;;;;;;;5077744;28;20058;-78
2022/09/23 06:13:42;;;;;;;11.02;9.82;;;;;;;;;;5096172;28;20028;-78
2022/09/23 06:16:08;;;;;;;13.75;9.93;;;;;;;;;;5096223;28;20031;-78
2022/09/23 06:18:34;;;;;;;10.93;9.25;;;;;;;;;;5095980;28;20060;-78
2022/09/23 06:21:01;;;;;;;11.60;9.18;;;;;;;;;;5096124;28;20498;-79
2022/09/23 06:23:26;;;;;;;10.68;9.30;;;;;;;;;;5077514;28;20024;-79
2022/09/23 06:25:52;;;;;;;13.10;10.00;;;;;;;;;;5095916;28;20028;-78
2022/09/23 06:28:18;;;;;;;10.45;9.35;;;;;;;;;;5096041;28;20024;-79
2022/09/23 06:30:48;;;;;;;10.25;9.18;;;;;;;;;;5077970;28;20032;-79
2022/09/23 06:33:13;;;;;;;10.13;8.45;;;;;;;;;;5095873;28;20153;-79
2022/09/23 06:35:39;;;;;;;10.75;8.98;;;;;;;;;;5077807;28;20051;-79
2022/09/23 06:38:04;;;;;;;12.98;9.95;;;;;;;;;;5095343;28;20031;-79
2022/09/23 06:40:30;;;;;;;9.73;8.73;;;;;;;;;;5078685;28;20008;-79
2022/09/23 06:43:04;;;;;;;18.02;13.07;;;;;;;;;;5096800;28;20052;-79
2022/09/23 06:45:29;;;;;;;20.23;14.25;;;;;;;;;;5061919;28;20020;-79
2022/09/23 06:47:56;;;;;;;14.20;11.25;;;;;;;;;;5096556;28;20493;-79
2022/09/23 06:50:26;;;;;;;17.35;13.43;;;;;;;;;;5096686;28;20067;-78
2022/09/23 06:52:54;;;;;;;20.05;14.00;;;;;;;;;;5082431;28;20468;-79
2022/09/23 06:55:23;;;;;;;17.92;12.00;;;;;;;;;;5066522;28;20040;-79
2022/09/23 06:57:49;;;;;;;15.60;10.98;;;;;;;;;;5100410;28;20077;-77
2022/09/23 07:00:15;;;;;;;13.63;11.20;;;;;;;;;;5080225;28;20028;-76
2022/09/23 07:02:41;;;;;;;14.18;11.00;;;;;;;;;;5097419;28;20098;-77
2022/09/23 07:05:08;;;;;;;12.95;10.68;;;;;;;;;;5079613;28;20024;-77
2022/09/23 07:07:35;;;;;;;12.35;10.55;;;;;;;;;;5097218;28;20047;-77
2022/09/23 07:10:01;;;;;;;14.60;10.48;;;;;;;;;;5097007;28;20537;-76
2022/09/23 07:12:26;;;;;;;12.80;9.85;;;;;;;;;;5097248;28;20054;-77
2022/09/23 07:14:53;;;;;;;12.57;10.05;;;;;;;;;;5096577;28;20032;-76
2022/09/23 07:17:18;;;;;;;13.13;10.27;;;;;;;;;;5078564;28;20097;-76
2022/09/23 07:19:43;;;;;;;14.95;10.05;;;;;;;;;;5096171;28;20020;-77
2022/09/23 07:22:09;;;;;;;13.40;10.70;;;;;;;;;;5078288;28;20023;-79
2022/09/23 07:24:34;;;;;;;19.17;12.77;;;;;;;;;;5096648;28;20031;-79
2022/09/23 07:27:00;;;;;;;13.50;10.20;;;;;;;;;;5078275;28;20095;-79
2022/09/23 07:29:26;;;;;;;13.85;9.68;;;;;;;;;;5078208;28;20032;-79
2022/09/23 07:31:51;;;;;;;15.68;11.38;;;;;;;;;;5096020;28;20071;-79
2022/09/23 07:34:17;;;;;;;17.90;11.70;;;;;;;;;;5096311;28;20028;-79
2022/09/23 07:36:42;;;;;;;14.20;10.90;;;;;;;;;;5078299;28;20476;-79
2022/09/23 07:39:09;;;;;;;14.23;10.27;;;;;;;;;;5095558;28;20052;-79
2022/09/23 07:41:35;;;;;;;10.32;8.77;;;;;;;;;;5060532;28;20058;-79
2022/09/23 07:44:02;;;;;;;13.02;9.73;;;;;;;;;;5095842;28;20056;-78
2022/09/23 07:46:31;;;;;;;16.73;11.77;;;;;;;;;;5077394;28;20175;-79
2022/09/23 07:48:57;;;;;;;13.57;10.15;;;;;;;;;;5077499;28;20028;-78
2022/09/23 07:51:31;;;;;;;10.65;8.73;;;;;;;;;;5095423;28;20031;-78
2022/09/23 07:53:58;;;;;;;10.52;8.25;;;;;;;;;;5077629;28;20442;-79
2022/09/23 07:56:24;;;;;;;11.52;9.48;;;;;;;;;;5095215;28;20020;-78
2022/09/23 07:58:58;;;;;;;10.00;8.63;;;;;;;;;;5095717;28;20024;-76
2022/09/23 08:01:28;;;;;;;10.82;8.88;;;;;;;;;;5060319;28;20074;-77
2022/09/23 08:03:54;;;;;;;9.32;7.97;;;;;;;;;;5095149;28;20041;-77
2022/09/23 08:06:20;;;;;;;11.57;7.72;;;;;;;;;;5094749;28;20028;-77
2022/09/23 08:08:45;;;;;;;10.55;8.02;;;;;;;;;;5094866;28;20051;-77
2022/09/23 08:11:13;;;;;;;7.97;6.93;;;;;;;;;;5094798;28;20597;-77
2022/09/23 08:13:38;;;;;;;12.18;8.50;;;;;;;;;;5094521;28;20036;-77
2022/09/23 08:16:04;;;;;;;8.43;7.50;;;;;;;;;;5076881;28;20486;-77
2022/09/23 08:18:30;;;;;;;9.23;6.63;;;;;;;;;;5076492;28;20081;-77
2022/09/23 08:20:55;;;;;;;9.77;6.43;;;;;;;;;;5076040;28;20411;-77
2022/09/23 08:23:21;;;;;;;6.57;5.88;;;;;;;;;;5059379;28;20019;-77
2022/09/23 08:25:46;;;;;;;11.25;6.47;;;;;;;;;;5076343;28;20100;-77
2022/09/23 08:28:15;;;;;;;9.70;6.93;;;;;;;;;;5094694;28;20361;-77
2022/09/23 08:30:40;;;;;;;9.93;6.68;;;;;;;;;;5094870;28;20523;-77
2022/09/23 08:33:06;;;;;;;9.32;6.85;;;;;;;;;;5094604;28;20051;-77
2022/09/23 08:35:31;;;;;;;11.27;7.18;;;;;;;;;;5099904;22;20074;-77
2022/09/23 08:37:57;;;;;;;8.77;6.65;;;;;;;;;;5076213;28;20035;-77
2022/09/23 08:40:22;;;;;;;7.78;6.22;;;;;;;;;;5094595;28;20464;-77
2022/09/23 08:42:48;;;;;;;10.40;7.18;;;;;;;;;;5094463;28;20134;-77
2022/09/23 08:45:19;;;;;;;7.95;6.03;;;;;;;;;;5093930;28;20020;-76
2022/09/23 08:47:48;;;;;;;6.35;5.65;;;;;;;;;;5093943;28;20040;-77
2022/09/23 08:50:17;;;;;;;7.85;6.63;;;;;;;;;;5075899;28;20027;-77
2022/09/23 08:52:57;;;;;;;6.85;6.10;;;;;;;;;;5076279;28;20028;-77
2022/09/23 08:55:34;;;;;;;6.45;4.90;;;;;;;;;;5094095;28;20032;-77
2022/09/23 08:58:06;;;;;;;6.22;4.70;;;;;;;;;;5094181;28;20089;-77
2022/09/23 09:00:41;;;;;;;5.15;4.30;;;;;;;;;;5075564;28;20080;-77
2022/09/23 09:03:20;;;;;;;6.55;4.75;;;;;;;;;;5093925;28;20027;-77
2022/09/23 09:05:46;;;;;;;5.70;5.07;;;;;;;;;;5094070;28;20525;-77
2022/09/23 09:08:12;;;;;;;2.95;2.63;;;;;;;;;;5075739;28;20047;-77
2022/09/23 09:10:41;;;;;;;3.15;2.65;;;;;;;;;;5094131;28;20047;-78
2022/09/23 09:13:09;;;;;;;3.95;2.92;;;;;;;;;;5075611;28;20027;-78
2022/09/23 09:15:41;;;;;;;4.70;2.90;;;;;;;;;;5093742;28;20035;-78
2022/09/23 09:18:20;;;;;;;2.47;2.13;;;;;;;;;;5093638;28;20032;-79
2022/09/23 09:20:45;;;;;;;3.95;2.90;;;;;;;;;;5093933;28;20030;-79
2022/09/23 09:23:13;;;;;;;3.67;2.88;;;;;;;;;;5076113;28;20020;-78
2022/09/23 09:25:43;;;;;;;3.42;3.13;;;;;;;;;;5075636;28;20029;-79
2022/09/23 09:28:19;;;;;;;4.47;3.38;;;;;;;;;;5094236;28;20016;-78
2022/09/23 09:30:46;;;;;;;3.85;3.30;;;;;;;;;;5093800;28;20036;-79
2022/09/23 09:33:16;;;;;;;4.38;3.38;;;;;;;;;;5075607;28;20020;-79
2022/09/23 09:36:00;;;;;;;3.58;3.28;;;;;;;;;;5093597;28;20044;-79
2022/09/23 09:38:26;;;;;;;3.67;2.72;;;;;;;;;;5092762;28;20036;-79
2022/09/23 09:40:54;;;;;;;2.88;2.67;;;;;;;;;;5075608;28;20069;-79
2022/09/23 09:43:22;;;;;;;3.10;2.90;;;;;;;;;;5064667;28;20062;-78
2022/09/23 09:45:53;;;;;;;3.03;2.83;;;;;;;;;;5101613;28;20016;-78
2022/09/23 09:48:38;;;;;;;2.35;2.20;;;;;;;;;;5095798;28;20036;-79
2022/09/23 09:51:18;;;;;;;2.75;2.55;;;;;;;;;;5094792;28;20055;-79
2022/09/23 09:53:43;;;;;;;3.10;2.60;;;;;;;;;;5093597;28;20024;-79
2022/09/23 09:56:11;;;;;;;3.10;2.90;;;;;;;;;;5093998;28;20095;-78
2022/09/23 09:58:44;;;;;;;2.83;2.60;;;;;;;;;;5075902;28;20032;-79
2022/09/23 10:01:28;;;;;;;3.35;2.92;;;;;;;;;;5093601;28;20568;-79
2022/09/23 10:03:57;;;;;;;4.88;2.90;;;;;;;;;;5093382;28;20472;-79
2022/09/23 10:06:24;;;;;;;3.30;2.63;;;;;;;;;;5093415;28;20027;-79
2022/09/23 10:09:12;;;;;;;1.98;1.88;;;;;;;;;;5075155;28;20031;-78
2022/09/23 10:11:38;;;;;;;3.55;2.15;;;;;;;;;;5064406;28;20036;-79
2022/09/23 10:14:18;;;;;;;1.80;1.70;;;;;;;;;;5093418;28;20101;-79
2022/09/23 10:16:44;;;;;;;2.78;2.05;;;;;;;;;;5093058;28;20032;-79
2022/09/23 10:19:12;;;;;;;2.33;2.13;;;;;;;;;;5074990;28;20379;-79
2022/09/23 10:21:38;;;;;;;1.60;1.50;;;;;;;;;;5093225;28;20036;-79
2022/09/23 10:24:05;;;;;;;2.35;1.10;;;;;;;;;;5092901;28;20024;-72
2022/09/23 10:26:40;;;;;;;1.10;0.98;;;;;;;;;;5092834;28;20106;-73
2022/09/23 10:29:24;;;;;;;3.55;2.20;;;;;;;;;;5093111;28;20526;-72
2022/09/23 10:32:12;;;;;;;1.50;1.40;;;;;;;;;;5092532;28;20030;-73
2022/09/23 10:34:41;;;;;;;1.45;1.35;;;;;;;;;;5093132;28;20024;-72
2022/09/23 10:37:13;;;;;;;1.55;1.45;;;;;;;;;;5074905;28;20028;-72
2022/09/23 10:48:13;;;;;;;1.35;1.27;;;;;;;;;;5092642;28;20522;-73
2022/09/23 10:50:47;;;;;;;0.80;0.80;;;;;;;;;;5095985;28;20024;-73
2022/09/23 10:53:32;;;;;;;1.20;1.20;;;;;;;;;;5078481;28;20373;-73
2022/09/23 10:56:00;;;;;;;2.95;2.50;;;;;;;;;;5078714;28;20036;-73
2022/09/23 10:58:41;;;;;;;2.45;2.35;;;;;;;;;;5078026;28;20020;-73
2022/09/23 11:01:25;;;;;;;1.55;1.45;;;;;;;;;;5096181;28;20027;-73
2022/09/23 11:03:57;;;;;;;1.35;1.30;;;;;;;;;;5078186;28;20028;-72
2022/09/23 11:06:31;;;;;;;1.20;1.10;;;;;;;;;;5096088;28;20024;-72
2022/09/23 11:09:06;;;;;;;1.00;1.00;;;;;;;;;;5094602;28;20036;-73
2022/09/23 11:11:50;;;;;;;0.82;0.82;;;;;;;;;;5076023;28;20035;-73
2022/09/23 11:14:21;;;;;;;0.90;0.90;;;;;;;;;;5075917;28;20046;-73
2022/09/23 11:16:53;;;;;;;0.95;0.90;;;;;;;;;;5093891;28;20484;-73
2022/09/23 11:19:24;;;;;;;1.40;1.30;;;;;;;;;;5075604;28;20039;-73
2022/09/23 11:22:02;;;;;;;1.08;1.00;;;;;;;;;;5075975;28;20024;-73
2022/09/23 11:24:51;;;;;;;0.75;0.75;;;;;;;;;;5077470;28;20060;-73
2022/09/23 11:27:16;;;;;;;0.90;0.90;;;;;;;;;;5077843;28;20047;-73
2022/09/23 11:30:00;;;;;;;0.90;0.90;;;;;;;;;;5077775;28;20097;-73
2022/09/23 11:32:39;;;;;;;1.20;0.90;;;;;;;;;;5095713;28;20043;-73
2022/09/23 11:35:19;;;;;;;1.02;1.02;;;;;;;;;;5095593;28;20146;-73
2022/09/23 11:37:50;;;;;;;2.45;1.90;;;;;;;;;;5077537;28;20093;-73
2022/09/23 11:40:19;;;;;;;2.85;1.52;;;;;;;;;;5095615;28;20028;-73
2022/09/23 11:43:06;;;;;;;3.35;1.85;;;;;;;;;;5095593;28;20020;-73
2022/09/23 11:45:43;;;;;;;6.22;2.67;;;;;;;;;;5095343;28;20024;-78
2022/09/23 11:48:32;;;;;;;3.95;1.83;;;;;;;;;;5095548;28;20028;-78
2022/09/23 11:51:09;;;;;;;1.23;1.08;;;;;;;;;;5084684;28;20059;-78
2022/09/23 11:53:40;;;;;;;1.00;1.00;;;;;;;;;;5095408;28;20028;-78
2022/09/23 11:56:22;;;;;;;1.92;1.20;;;;;;;;;;5095319;28;20032;-78
2022/09/23 11:59:01;;;;;;;3.00;1.17;;;;;;;;;;5095151;28;20020;-78
2022/09/23 12:01:38;;;;;;;1.70;1.35;;;;;;;;;;5094331;28;20088;-78
2022/09/23 12:04:17;;;;;;;1.63;1.35;;;;;;;;;;5076973;28;20035;-78
2022/09/23 12:06:45;;;;;;;1.40;1.30;;;;;;;;;;5095094;28;20024;-78
2022/09/23 12:09:18;;;;;;;1.30;1.30;;;;;;;;;;5095005;28;20265;-78
2022/09/23 12:11:52;;;;;;;1.13;1.13;;;;;;;;;;5077030;28;20035;-74
2022/09/23 12:14:18;;;;;;;1.40;1.30;;;;;;;;;;5094918;28;20039;-74
2022/09/23 12:16:57;;;;;;;2.15;1.30;;;;;;;;;;5094942;28;20024;-74
2022/09/23 12:19:46;;;;;;;3.15;1.10;;;;;;;;;;5094770;28;20034;-74
2022/09/23 12:22:12;;;;;;;1.58;1.00;;;;;;;;;;5094922;28;20053;-74
2022/09/23 12:24:52;;;;;;;1.10;1.10;;;;;;;;;;5076819;28;20095;-74
2022/09/23 12:27:21;;;;;;;;;;;;;;;;;;5077230;28;20024;-74
2022/09/23 12:29:48;;;;;;;1.27;1.27;;;;;;;;;;5095173;28;19958;-74
2022/09/23 12:32:17;;;;;;;1.45;1.30;;;;;;;;;;5094757;28;20111;-74
2022/09/23 12:34:50;;;;;;;1.40;1.30;;;;;;;;;;5094527;28;20099;-74
2022/09/23 12:37:27;;;;;;;1.88;1.55;;;;;;;;;;5076313;28;20040;-74
2022/09/23 12:39:53;;;;;;;1.52;1.42;;;;;;;;;;5094541;28;20030;-74
2022/09/23 12:42:19;;;;;;;1.60;1.50;;;;;;;;;;5094391;28;20476;-74
2022/09/23 12:44:46;;;;;;;1.50;1.40;;;;;;;;;;5076509;28;20446;-74
2022/09/23 12:47:19;;;;;;;1.20;1.20;;;;;;;;;;5076167;28;20020;-74
2022/09/23 12:49:49;;;;;;;1.50;1.40;;;;;;;;;;5076042;28;20031;-74
2022/09/23 12:52:15;;;;;;;1.10;1.10;;;;;;;;;;5075406;28;20598;-74
2022/09/23 12:54:41;;;;;;;1.00;0.95;;;;;;;;;;5092253;28;20341;-73
2022/09/23 12:57:11;;;;;;;1.08;1.00;;;;;;;;;;5091214;28;20024;-74
2022/09/23 12:59:55;;;;;;;1.20;1.10;;;;;;;;;;5091389;28;20068;-74
2022/09/23 13:02:32;;;;;;;1.30;1.20;;;;;;;;;;5092761;28;20033;-74
2022/09/23 13:08:22;;;;;;;1.48;1.38;;;;;;;;;;5092768;28;20112;-74
2022/09/23 13:10:51;;;;;;;1.27;1.20;;;;;;;;;;5092102;28;20514;-74
2022/09/23 13:13:19;;;;;;;1.52;1.30;;;;;;;;;;5091307;28;20032;-74
2022/09/23 13:15:44;;;;;;;1.30;1.20;;;;;;;;;;5092650;28;20331;-74
2022/09/23 13:18:19;;;;;;;1.67;1.15;;;;;;;;;;5092210;28;20030;-73
2022/09/23 13:20:45;;;;;;;1.20;1.10;;;;;;;;;;5092729;28;20042;-73
2022/09/23 13:23:27;;;;;;;1.50;1.40;;;;;;;;;;5092067;28;20027;-73
2022/09/23 13:25:58;;;;;;;1.80;1.70;;;;;;;;;;5092656;28;20020;-74
2022/09/23 13:28:29;;;;;;;2.10;2.00;;;;;;;;;;5090931;28;20024;-73
2022/09/23 13:30:55;;;;;;;1.48;1.33;;;;;;;;;;5092368;28;20431;-73
2022/09/23 13:33:33;;;;;;;1.27;1.17;;;;;;;;;;5091170;28;20027;-73
2022/09/23 13:36:03;;;;;;;1.63;1.33;;;;;;;;;;5091164;28;20067;-73
2022/09/23 13:38:30;;;;;;;1.17;1.13;;;;;;;;;;5092310;28;20042;-73
2022/09/23 13:41:06;;;;;;;1.45;1.33;;;;;;;;;;5091223;28;20475;-74
2022/09/23 13:43:38;;;;;;;2.40;1.40;;;;;;;;;;5091078;28;20032;-73
2022/09/23 13:46:07;;;;;;;1.92;1.40;;;;;;;;;;5092155;28;20121;-74
2022/09/23 13:48:33;;;;;;;1.50;1.30;;;;;;;;;;5092296;28;20468;-74
2022/09/23 13:51:03;;;;;;;1.23;1.00;;;;;;;;;;5092309;28;20107;-74
2022/09/23 13:53:30;;;;;;;1.33;1.23;;;;;;;;;;5091236;28;20028;-74
2022/09/23 13:56:03;;;;;;;2.05;1.38;;;;;;;;;;5092427;28;20031;-74
2022/09/23 13:58:29;;;;;;;1.38;1.30;;;;;;;;;;5090490;28;20115;-74
2022/09/23 14:00:55;;;;;;;1.45;1.25;;;;;;;;;;5090884;28;20024;-74
2022/09/23 14:03:20;;;;;;;1.30;1.20;;;;;;;;;;5074140;28;20077;-74
2022/09/23 14:05:46;;;;;;;1.30;1.20;;;;;;;;;;5092294;28;20040;-74
2022/09/23 14:08:11;;;;;;;1.92;1.40;;;;;;;;;;5092203;28;20284;-74
2022/09/23 14:10:41;;;;;;;1.73;1.17;;;;;;;;;;5091839;28;20111;-74
2022/09/23 14:13:12;;;;;;;1.35;1.25;;;;;;;;;;5090706;28;20035;-74
2022/09/23 14:15:39;;;;;;;2.00;1.90;;;;;;;;;;5090695;28;20034;-74
2022/09/23 14:18:05;;;;;;;1.80;1.55;;;;;;;;;;5090757;28;20020;-75
2022/09/23 14:20:31;;;;;;;1.30;1.20;;;;;;;;;;5092089;28;20427;-75
2022/09/23 14:23:03;;;;;;;1.40;1.30;;;;;;;;;;5092213;28;20020;-75
2022/09/23 14:25:29;;;;;;;1.50;1.40;;;;;;;;;;5095039;28;20024;-75
2022/09/23 14:27:54;;;;;;;1.35;1.25;;;;;;;;;;5095818;28;20038;-75
2022/09/23 14:30:20;;;;;;;1.60;1.50;;;;;;;;;;5096364;28;20028;-75
2022/09/23 14:32:46;;;;;;;2.58;1.60;;;;;;;;;;5096984;28;20023;-75
2022/09/23 14:35:26;;;;;;;4.32;2.78;;;;;;;;;;5095511;28;20043;-75
2022/09/23 14:40:49;;;;;;;2.40;1.70;;;;;;;;;;5095652;28;20024;-75
2022/09/23 14:43:16;;;;;;;6.90;3.67;;;;;;;;;;5096656;28;20028;-74
2022/09/23 14:45:49;;;;;;;1.73;1.63;;;;;;;;;;5095777;28;20061;-76
2022/09/23 14:48:23;;;;;;;2.03;1.60;;;;;;;;;;5150063;22;20420;-81
2022/09/23 15:19:05;;;;;;;2.10;1.90;;;;;;;;;;6036515;23;20740;31
2022/09/23 15:21:41;;;;;;;3.10;1.67;;;;;;;;;;4883448;29;20057;-81
2022/09/23 15:24:25;;;;;;;2.28;1.67;;;;;;;;;;4900099;29;20025;-81
2022/09/23 15:26:56;;;;;;;1.92;1.70;;;;;;;;;;4896403;29;20085;-84
2022/09/23 15:29:23;;;;;;;3.33;2.00;;;;;;;;;;4902234;29;20061;-83